sensor_id;sensor_type;location;lat;lon;timestamp;P1;durP1;ratioP1;P2;durP2;ratioP2
22030;SDS011;11179;52.106;21.024;2023-04-24T00:00:04;16.37;;;8.93;;
22030;SDS011;11179;52.106;21.024;2023-04-24T00:02:37;15.43;;;8.00;;
22030;SDS011;11179;52.106;21.024;2023-04-24T00:05:04;14.47;;;8.33;;
22030;SDS011;11179;52.106;21.024;2023-04-24T00:07:30;16.03;;;8.50;;
22030;SDS011;11179;52.106;21.024;2023-04-24T00:09:55;18.63;;;9.13;;
22030;SDS011;11179;52.106;21.024;2023-04-24T00:12:21;18.20;;;9.43;;
22030;SDS011;11179;52.106;21.024;2023-04-24T00:14:46;13.13;;;7.90;;
22030;SDS011;11179;52.106;21.024;2023-04-24T00:17:12;24.30;;;9.47;;
22030;SDS011;11179;52.106;21.024;2023-04-24T00:19:37;18.67;;;8.90;;
22030;SDS011;11179;52.106;21.024;2023-04-24T00:22:03;19.20;;;8.77;;
22030;SDS011;11179;52.106;21.024;2023-04-24T00:24:28;18.20;;;8.80;;
22030;SDS011;11179;52.106;21.024;2023-04-24T00:26:54;25.90;;;10.20;;
22030;SDS011;11179;52.106;21.024;2023-04-24T00:29:19;18.90;;;10.07;;
22030;SDS011;11179;52.106;21.024;2023-04-24T00:31:44;23.23;;;9.37;;
22030;SDS011;11179;52.106;21.024;2023-04-24T00:34:10;18.37;;;9.97;;
22030;SDS011;11179;52.106;21.024;2023-04-24T00:36:36;23.97;;;9.97;;
22030;SDS011;11179;52.106;21.024;2023-04-24T00:39:02;18.50;;;9.43;;
22030;SDS011;11179;52.106;21.024;2023-04-24T00:41:27;15.63;;;8.97;;
22030;SDS011;11179;52.106;21.024;2023-04-24T00:43:52;19.67;;;10.63;;
22030;SDS011;11179;52.106;21.024;2023-04-24T00:46:18;18.70;;;9.57;;
22030;SDS011;11179;52.106;21.024;2023-04-24T00:48:44;19.93;;;9.97;;
22030;SDS011;11179;52.106;21.024;2023-04-24T00:51:09;18.50;;;9.70;;
22030;SDS011;11179;52.106;21.024;2023-04-24T00:53:35;17.43;;;9.87;;
22030;SDS011;11179;52.106;21.024;2023-04-24T00:56:00;14.87;;;9.07;;
22030;SDS011;11179;52.106;21.024;2023-04-24T00:58:26;20.70;;;9.00;;
22030;SDS011;11179;52.106;21.024;2023-04-24T01:00:52;26.00;;;10.70;;
22030;SDS011;11179;52.106;21.024;2023-04-24T01:03:21;20.30;;;10.37;;
22030;SDS011;11179;52.106;21.024;2023-04-24T01:05:47;16.63;;;9.70;;
22030;SDS011;11179;52.106;21.024;2023-04-24T01:08:14;16.03;;;9.40;;
22030;SDS011;11179;52.106;21.024;2023-04-24T01:10:40;17.90;;;10.00;;
22030;SDS011;11179;52.106;21.024;2023-04-24T01:13:07;22.80;;;11.37;;
22030;SDS011;11179;52.106;21.024;2023-04-24T01:15:34;19.03;;;11.70;;
22030;SDS011;11179;52.106;21.024;2023-04-24T01:17:59;19.03;;;9.80;;
22030;SDS011;11179;52.106;21.024;2023-04-24T01:20:25;17.77;;;9.90;;
22030;SDS011;11179;52.106;21.024;2023-04-24T01:22:51;19.23;;;9.50;;
22030;SDS011;11179;52.106;21.024;2023-04-24T01:25:16;18.77;;;9.37;;
22030;SDS011;11179;52.106;21.024;2023-04-24T01:27:42;28.77;;;12.07;;
22030;SDS011;11179;52.106;21.024;2023-04-24T01:30:08;19.53;;;9.93;;
22030;SDS011;11179;52.106;21.024;2023-04-24T01:32:34;20.20;;;11.13;;
22030;SDS011;11179;52.106;21.024;2023-04-24T01:35:01;19.40;;;10.53;;
22030;SDS011;11179;52.106;21.024;2023-04-24T01:37:27;16.80;;;9.90;;
22030;SDS011;11179;52.106;21.024;2023-04-24T01:39:53;18.23;;;10.07;;
22030;SDS011;11179;52.106;21.024;2023-04-24T01:42:18;17.70;;;9.63;;
22030;SDS011;11179;52.106;21.024;2023-04-24T01:44:44;20.43;;;10.53;;
22030;SDS011;11179;52.106;21.024;2023-04-24T01:47:10;17.83;;;10.40;;
22030;SDS011;11179;52.106;21.024;2023-04-24T01:49:37;16.57;;;10.10;;
22030;SDS011;11179;52.106;21.024;2023-04-24T01:52:03;17.03;;;9.67;;
22030;SDS011;11179;52.106;21.024;2023-04-24T01:54:28;17.10;;;10.30;;
22030;SDS011;11179;52.106;21.024;2023-04-24T01:56:54;17.20;;;10.33;;
22030;SDS011;11179;52.106;21.024;2023-04-24T01:59:19;17.70;;;9.60;;
22030;SDS011;11179;52.106;21.024;2023-04-24T02:01:46;17.90;;;10.00;;
22030;SDS011;11179;52.106;21.024;2023-04-24T02:04:11;21.13;;;10.80;;
22030;SDS011;11179;52.106;21.024;2023-04-24T02:06:37;15.77;;;9.40;;
22030;SDS011;11179;52.106;21.024;2023-04-24T02:09:02;22.03;;;11.20;;
22030;SDS011;11179;52.106;21.024;2023-04-24T02:11:28;23.63;;;9.87;;
22030;SDS011;11179;52.106;21.024;2023-04-24T02:13:53;19.67;;;10.80;;
22030;SDS011;11179;52.106;21.024;2023-04-24T02:16:19;21.30;;;11.13;;
22030;SDS011;11179;52.106;21.024;2023-04-24T02:18:44;22.90;;;12.60;;
22030;SDS011;11179;52.106;21.024;2023-04-24T02:21:10;17.13;;;10.00;;
22030;SDS011;11179;52.106;21.024;2023-04-24T02:23:35;19.10;;;10.73;;
22030;SDS011;11179;52.106;21.024;2023-04-24T02:26:00;17.87;;;10.07;;
22030;SDS011;11179;52.106;21.024;2023-04-24T02:28:26;19.60;;;10.40;;
22030;SDS011;11179;52.106;21.024;2023-04-24T02:30:51;20.23;;;9.57;;
22030;SDS011;11179;52.106;21.024;2023-04-24T02:33:17;19.70;;;10.80;;
22030;SDS011;11179;52.106;21.024;2023-04-24T02:35:42;18.87;;;10.37;;
22030;SDS011;11179;52.106;21.024;2023-04-24T02:38:07;17.90;;;9.63;;
22030;SDS011;11179;52.106;21.024;2023-04-24T02:40:33;22.70;;;9.83;;
22030;SDS011;11179;52.106;21.024;2023-04-24T02:42:58;16.40;;;10.03;;
22030;SDS011;11179;52.106;21.024;2023-04-24T02:45:23;21.03;;;10.90;;
22030;SDS011;11179;52.106;21.024;2023-04-24T02:47:49;20.50;;;10.77;;
22030;SDS011;11179;52.106;21.024;2023-04-24T02:50:14;24.07;;;11.40;;
22030;SDS011;11179;52.106;21.024;2023-04-24T02:52:40;17.37;;;11.10;;
22030;SDS011;11179;52.106;21.024;2023-04-24T02:55:05;19.87;;;11.20;;
22030;SDS011;11179;52.106;21.024;2023-04-24T02:57:32;18.23;;;10.77;;
22030;SDS011;11179;52.106;21.024;2023-04-24T02:59:58;21.13;;;11.07;;
22030;SDS011;11179;52.106;21.024;2023-04-24T03:02:23;17.03;;;10.53;;
22030;SDS011;11179;52.106;21.024;2023-04-24T03:04:48;16.70;;;10.50;;
22030;SDS011;11179;52.106;21.024;2023-04-24T03:07:14;21.60;;;11.20;;
22030;SDS011;11179;52.106;21.024;2023-04-24T03:09:39;24.20;;;12.37;;
22030;SDS011;11179;52.106;21.024;2023-04-24T03:12:05;20.50;;;11.23;;
22030;SDS011;11179;52.106;21.024;2023-04-24T03:14:30;26.80;;;12.30;;
22030;SDS011;11179;52.106;21.024;2023-04-24T03:16:56;22.03;;;11.30;;
22030;SDS011;11179;52.106;21.024;2023-04-24T03:19:21;18.67;;;11.47;;
22030;SDS011;11179;52.106;21.024;2023-04-24T03:21:47;23.03;;;10.70;;
22030;SDS011;11179;52.106;21.024;2023-04-24T03:24:12;26.47;;;12.10;;
22030;SDS011;11179;52.106;21.024;2023-04-24T03:26:38;22.57;;;10.60;;
22030;SDS011;11179;52.106;21.024;2023-04-24T03:29:03;22.07;;;11.00;;
22030;SDS011;11179;52.106;21.024;2023-04-24T03:31:28;20.90;;;11.60;;
22030;SDS011;11179;52.106;21.024;2023-04-24T03:33:54;20.70;;;10.57;;
22030;SDS011;11179;52.106;21.024;2023-04-24T03:36:19;21.67;;;12.30;;
22030;SDS011;11179;52.106;21.024;2023-04-24T03:38:45;23.33;;;11.73;;
22030;SDS011;11179;52.106;21.024;2023-04-24T03:41:10;17.13;;;10.43;;
22030;SDS011;11179;52.106;21.024;2023-04-24T03:43:36;20.27;;;11.30;;
22030;SDS011;11179;52.106;21.024;2023-04-24T03:46:01;19.93;;;10.50;;
22030;SDS011;11179;52.106;21.024;2023-04-24T03:48:27;20.03;;;11.30;;
22030;SDS011;11179;52.106;21.024;2023-04-24T03:50:52;18.87;;;10.60;;
22030;SDS011;11179;52.106;21.024;2023-04-24T03:53:17;17.43;;;10.30;;
22030;SDS011;11179;52.106;21.024;2023-04-24T03:55:44;17.80;;;10.30;;
22030;SDS011;11179;52.106;21.024;2023-04-24T03:58:10;23.30;;;12.03;;
22030;SDS011;11179;52.106;21.024;2023-04-24T04:00:36;19.03;;;11.10;;
22030;SDS011;11179;52.106;21.024;2023-04-24T04:03:02;17.27;;;10.23;;
22030;SDS011;11179;52.106;21.024;2023-04-24T04:05:28;27.03;;;12.00;;
22030;SDS011;11179;52.106;21.024;2023-04-24T04:07:53;21.17;;;11.43;;
22030;SDS011;11179;52.106;21.024;2023-04-24T04:10:18;23.17;;;12.43;;
22030;SDS011;11179;52.106;21.024;2023-04-24T04:12:44;19.63;;;10.80;;
22030;SDS011;11179;52.106;21.024;2023-04-24T04:15:09;20.50;;;10.70;;
22030;SDS011;11179;52.106;21.024;2023-04-24T04:17:35;21.07;;;12.07;;
22030;SDS011;11179;52.106;21.024;2023-04-24T04:20:00;26.70;;;11.30;;
22030;SDS011;11179;52.106;21.024;2023-04-24T04:22:26;23.03;;;11.67;;
22030;SDS011;11179;52.106;21.024;2023-04-24T04:24:52;27.83;;;10.80;;
22030;SDS011;11179;52.106;21.024;2023-04-24T04:27:18;23.10;;;11.10;;
22030;SDS011;11179;52.106;21.024;2023-04-24T04:29:43;21.70;;;10.13;;
22030;SDS011;11179;52.106;21.024;2023-04-24T04:32:09;16.97;;;9.50;;
22030;SDS011;11179;52.106;21.024;2023-04-24T04:34:35;19.30;;;10.53;;
22030;SDS011;11179;52.106;21.024;2023-04-24T04:37:02;16.20;;;10.03;;
22030;SDS011;11179;52.106;21.024;2023-04-24T04:39:28;18.90;;;10.43;;
22030;SDS011;11179;52.106;21.024;2023-04-24T04:41:54;21.17;;;11.13;;
22030;SDS011;11179;52.106;21.024;2023-04-24T04:44:20;19.37;;;10.83;;
22030;SDS011;11179;52.106;21.024;2023-04-24T04:46:45;20.90;;;10.50;;
22030;SDS011;11179;52.106;21.024;2023-04-24T04:49:11;18.97;;;10.60;;
22030;SDS011;11179;52.106;21.024;2023-04-24T04:51:36;19.77;;;10.80;;
22030;SDS011;11179;52.106;21.024;2023-04-24T04:54:01;21.73;;;10.70;;
22030;SDS011;11179;52.106;21.024;2023-04-24T04:56:27;24.47;;;11.27;;
22030;SDS011;11179;52.106;21.024;2023-04-24T04:58:52;20.13;;;10.67;;
22030;SDS011;11179;52.106;21.024;2023-04-24T05:01:18;24.73;;;10.50;;
22030;SDS011;11179;52.106;21.024;2023-04-24T05:03:43;25.60;;;11.17;;
22030;SDS011;11179;52.106;21.024;2023-04-24T05:06:09;23.90;;;10.47;;
22030;SDS011;11179;52.106;21.024;2023-04-24T05:08:34;20.57;;;10.10;;
22030;SDS011;11179;52.106;21.024;2023-04-24T05:11:00;21.53;;;9.60;;
22030;SDS011;11179;52.106;21.024;2023-04-24T05:13:25;17.43;;;10.00;;
22030;SDS011;11179;52.106;21.024;2023-04-24T05:15:51;18.70;;;10.57;;
22030;SDS011;11179;52.106;21.024;2023-04-24T05:18:16;23.30;;;10.60;;
22030;SDS011;11179;52.106;21.024;2023-04-24T05:20:42;19.23;;;10.40;;
22030;SDS011;11179;52.106;21.024;2023-04-24T05:23:08;18.70;;;9.97;;
22030;SDS011;11179;52.106;21.024;2023-04-24T05:25:34;22.10;;;10.10;;
22030;SDS011;11179;52.106;21.024;2023-04-24T05:28:00;19.33;;;9.73;;
22030;SDS011;11179;52.106;21.024;2023-04-24T05:30:26;16.60;;;9.90;;
22030;SDS011;11179;52.106;21.024;2023-04-24T05:32:52;16.27;;;10.17;;
22030;SDS011;11179;52.106;21.024;2023-04-24T05:35:17;16.23;;;9.90;;
22030;SDS011;11179;52.106;21.024;2023-04-24T05:37:43;18.37;;;11.40;;
22030;SDS011;11179;52.106;21.024;2023-04-24T05:40:09;19.10;;;9.50;;
22030;SDS011;11179;52.106;21.024;2023-04-24T05:42:35;18.13;;;10.97;;
22030;SDS011;11179;52.106;21.024;2023-04-24T05:45:00;20.30;;;9.77;;
22030;SDS011;11179;52.106;21.024;2023-04-24T05:47:26;24.83;;;10.73;;
22030;SDS011;11179;52.106;21.024;2023-04-24T05:49:51;16.97;;;10.20;;
22030;SDS011;11179;52.106;21.024;2023-04-24T05:52:17;19.20;;;10.13;;
22030;SDS011;11179;52.106;21.024;2023-04-24T05:54:43;16.77;;;10.10;;
22030;SDS011;11179;52.106;21.024;2023-04-24T05:57:08;18.43;;;9.90;;
22030;SDS011;11179;52.106;21.024;2023-04-24T06:02:01;24.90;;;9.93;;
22030;SDS011;11179;52.106;21.024;2023-04-24T06:04:27;15.80;;;9.20;;
22030;SDS011;11179;52.106;21.024;2023-04-24T06:06:52;22.13;;;9.37;;
22030;SDS011;11179;52.106;21.024;2023-04-24T06:09:24;16.17;;;9.53;;
22030;SDS011;11179;52.106;21.024;2023-04-24T06:11:50;18.00;;;9.73;;
22030;SDS011;11179;52.106;21.024;2023-04-24T06:14:19;17.30;;;9.50;;
22030;SDS011;11179;52.106;21.024;2023-04-24T06:16:44;21.10;;;9.83;;
22030;SDS011;11179;52.106;21.024;2023-04-24T06:19:10;26.37;;;9.53;;
22030;SDS011;11179;52.106;21.024;2023-04-24T06:21:35;19.40;;;9.60;;
22030;SDS011;11179;52.106;21.024;2023-04-24T06:24:00;17.90;;;9.07;;
22030;SDS011;11179;52.106;21.024;2023-04-24T06:26:26;17.73;;;8.93;;
22030;SDS011;11179;52.106;21.024;2023-04-24T06:28:52;19.77;;;9.30;;
22030;SDS011;11179;52.106;21.024;2023-04-24T06:31:20;16.50;;;9.17;;
22030;SDS011;11179;52.106;21.024;2023-04-24T06:33:48;18.17;;;9.40;;
22030;SDS011;11179;52.106;21.024;2023-04-24T06:36:13;18.60;;;9.20;;
22030;SDS011;11179;52.106;21.024;2023-04-24T06:38:39;24.13;;;9.67;;
22030;SDS011;11179;52.106;21.024;2023-04-24T06:41:04;16.97;;;9.50;;
22030;SDS011;11179;52.106;21.024;2023-04-24T06:43:30;19.57;;;10.00;;
22030;SDS011;11179;52.106;21.024;2023-04-24T06:45:57;15.60;;;8.70;;
22030;SDS011;11179;52.106;21.024;2023-04-24T06:48:23;16.80;;;9.70;;
22030;SDS011;11179;52.106;21.024;2023-04-24T06:50:49;20.60;;;9.40;;
22030;SDS011;11179;52.106;21.024;2023-04-24T06:53:14;24.60;;;10.20;;
22030;SDS011;11179;52.106;21.024;2023-04-24T06:55:39;17.80;;;8.43;;
22030;SDS011;11179;52.106;21.024;2023-04-24T06:58:05;16.03;;;8.90;;
22030;SDS011;11179;52.106;21.024;2023-04-24T07:00:31;19.90;;;9.07;;
22030;SDS011;11179;52.106;21.024;2023-04-24T07:02:56;19.67;;;8.93;;
22030;SDS011;11179;52.106;21.024;2023-04-24T07:05:22;16.67;;;9.33;;
22030;SDS011;11179;52.106;21.024;2023-04-24T07:07:48;15.90;;;9.10;;
22030;SDS011;11179;52.106;21.024;2023-04-24T07:10:14;17.50;;;8.73;;
22030;SDS011;11179;52.106;21.024;2023-04-24T07:12:40;15.30;;;9.03;;
22030;SDS011;11179;52.106;21.024;2023-04-24T07:15:06;26.13;;;9.83;;
22030;SDS011;11179;52.106;21.024;2023-04-24T07:17:32;23.73;;;9.30;;
22030;SDS011;11179;52.106;21.024;2023-04-24T07:19:59;22.03;;;9.53;;
22030;SDS011;11179;52.106;21.024;2023-04-24T07:22:25;21.83;;;8.77;;
22030;SDS011;11179;52.106;21.024;2023-04-24T07:24:50;28.67;;;8.70;;
22030;SDS011;11179;52.106;21.024;2023-04-24T07:27:16;18.70;;;8.73;;
22030;SDS011;11179;52.106;21.024;2023-04-24T07:29:41;25.93;;;9.00;;
22030;SDS011;11179;52.106;21.024;2023-04-24T07:32:07;17.00;;;8.53;;
22030;SDS011;11179;52.106;21.024;2023-04-24T07:34:34;16.07;;;8.13;;
22030;SDS011;11179;52.106;21.024;2023-04-24T07:36:59;17.13;;;8.97;;
22030;SDS011;11179;52.106;21.024;2023-04-24T07:39:24;16.23;;;8.27;;
22030;SDS011;11179;52.106;21.024;2023-04-24T07:41:51;16.23;;;8.60;;
22030;SDS011;11179;52.106;21.024;2023-04-24T07:44:16;25.47;;;9.00;;
22030;SDS011;11179;52.106;21.024;2023-04-24T07:46:41;16.83;;;8.00;;
22030;SDS011;11179;52.106;21.024;2023-04-24T07:49:07;20.33;;;8.90;;
22030;SDS011;11179;52.106;21.024;2023-04-24T07:51:32;18.10;;;8.87;;
22030;SDS011;11179;52.106;21.024;2023-04-24T07:54:03;27.30;;;8.47;;
22030;SDS011;11179;52.106;21.024;2023-04-24T07:56:28;20.03;;;9.50;;
22030;SDS011;11179;52.106;21.024;2023-04-24T07:58:56;20.00;;;9.37;;
22030;SDS011;11179;52.106;21.024;2023-04-24T08:01:21;13.07;;;8.30;;
22030;SDS011;11179;52.106;21.024;2023-04-24T08:03:46;16.67;;;8.97;;
22030;SDS011;11179;52.106;21.024;2023-04-24T08:06:12;20.13;;;9.93;;
22030;SDS011;11179;52.106;21.024;2023-04-24T08:08:37;17.30;;;8.20;;
22030;SDS011;11179;52.106;21.024;2023-04-24T08:11:02;35.53;;;9.83;;
22030;SDS011;11179;52.106;21.024;2023-04-24T08:13:28;19.47;;;8.50;;
22030;SDS011;11179;52.106;21.024;2023-04-24T08:15:53;21.93;;;9.00;;
22030;SDS011;11179;52.106;21.024;2023-04-24T08:18:18;14.90;;;9.10;;
22030;SDS011;11179;52.106;21.024;2023-04-24T08:20:44;28.03;;;8.77;;
22030;SDS011;11179;52.106;21.024;2023-04-24T08:23:10;19.47;;;9.13;;
22030;SDS011;11179;52.106;21.024;2023-04-24T08:25:35;15.97;;;7.87;;
22030;SDS011;11179;52.106;21.024;2023-04-24T08:28:05;18.00;;;8.60;;
22030;SDS011;11179;52.106;21.024;2023-04-24T08:30:31;18.03;;;9.30;;
22030;SDS011;11179;52.106;21.024;2023-04-24T08:32:56;14.37;;;8.27;;
22030;SDS011;11179;52.106;21.024;2023-04-24T08:35:22;16.20;;;8.10;;
22030;SDS011;11179;52.106;21.024;2023-04-24T08:37:48;19.67;;;9.20;;
22030;SDS011;11179;52.106;21.024;2023-04-24T08:40:13;22.50;;;8.70;;
22030;SDS011;11179;52.106;21.024;2023-04-24T08:42:44;14.33;;;8.00;;
22030;SDS011;11179;52.106;21.024;2023-04-24T08:45:10;17.30;;;8.80;;
22030;SDS011;11179;52.106;21.024;2023-04-24T08:47:40;15.33;;;8.43;;
22030;SDS011;11179;52.106;21.024;2023-04-24T08:50:06;33.70;;;9.60;;
22030;SDS011;11179;52.106;21.024;2023-04-24T08:52:33;13.23;;;7.83;;
22030;SDS011;11179;52.106;21.024;2023-04-24T08:54:59;16.20;;;9.80;;
22030;SDS011;11179;52.106;21.024;2023-04-24T08:57:26;14.60;;;8.43;;
22030;SDS011;11179;52.106;21.024;2023-04-24T08:59:52;13.97;;;8.30;;
22030;SDS011;11179;52.106;21.024;2023-04-24T09:02:18;16.07;;;8.93;;
22030;SDS011;11179;52.106;21.024;2023-04-24T09:04:45;25.53;;;8.37;;
22030;SDS011;11179;52.106;21.024;2023-04-24T09:07:12;13.70;;;7.20;;
22030;SDS011;11179;52.106;21.024;2023-04-24T09:09:39;12.90;;;6.70;;
22030;SDS011;11179;52.106;21.024;2023-04-24T09:12:06;15.80;;;7.50;;
22030;SDS011;11179;52.106;21.024;2023-04-24T09:14:34;16.70;;;7.90;;
22030;SDS011;11179;52.106;21.024;2023-04-24T09:17:01;13.60;;;7.10;;
22030;SDS011;11179;52.106;21.024;2023-04-24T09:19:26;14.27;;;7.27;;
22030;SDS011;11179;52.106;21.024;2023-04-24T09:21:51;15.67;;;6.83;;
22030;SDS011;11179;52.106;21.024;2023-04-24T09:24:19;14.10;;;7.03;;
22030;SDS011;11179;52.106;21.024;2023-04-24T09:26:47;14.87;;;7.87;;
22030;SDS011;11179;52.106;21.024;2023-04-24T09:29:14;13.60;;;6.83;;
22030;SDS011;11179;52.106;21.024;2023-04-24T09:31:41;15.87;;;7.87;;
22030;SDS011;11179;52.106;21.024;2023-04-24T09:34:06;14.40;;;7.10;;
22030;SDS011;11179;52.106;21.024;2023-04-24T09:38:59;15.93;;;8.97;;
22030;SDS011;11179;52.106;21.024;2023-04-24T09:41:25;21.87;;;9.70;;
22030;SDS011;11179;52.106;21.024;2023-04-24T09:43:55;14.37;;;9.10;;
22030;SDS011;11179;52.106;21.024;2023-04-24T09:46:28;15.80;;;9.30;;
22030;SDS011;11179;52.106;21.024;2023-04-24T09:48:55;13.87;;;9.17;;
22030;SDS011;11179;52.106;21.024;2023-04-24T09:51:32;14.83;;;8.80;;
22030;SDS011;11179;52.106;21.024;2023-04-24T09:54:00;14.60;;;8.60;;
22030;SDS011;11179;52.106;21.024;2023-04-24T09:56:25;15.20;;;9.90;;
22030;SDS011;11179;52.106;21.024;2023-04-24T09:58:51;12.57;;;7.70;;
22030;SDS011;11179;52.106;21.024;2023-04-24T10:01:28;13.20;;;8.33;;
22030;SDS011;11179;52.106;21.024;2023-04-24T10:03:55;12.33;;;8.17;;
22030;SDS011;11179;52.106;21.024;2023-04-24T10:06:20;14.40;;;7.33;;
22030;SDS011;11179;52.106;21.024;2023-04-24T10:08:46;13.03;;;7.23;;
22030;SDS011;11179;52.106;21.024;2023-04-24T10:11:13;14.63;;;7.83;;
22030;SDS011;11179;52.106;21.024;2023-04-24T10:13:39;12.37;;;7.57;;
22030;SDS011;11179;52.106;21.024;2023-04-24T10:16:05;16.03;;;7.80;;
22030;SDS011;11179;52.106;21.024;2023-04-24T10:18:31;16.93;;;7.73;;
22030;SDS011;11179;52.106;21.024;2023-04-24T10:20:57;13.77;;;6.93;;
22030;SDS011;11179;52.106;21.024;2023-04-24T10:23:25;12.60;;;7.13;;
22030;SDS011;11179;52.106;21.024;2023-04-24T10:25:50;17.83;;;6.60;;
22030;SDS011;11179;52.106;21.024;2023-04-24T10:28:17;11.90;;;7.33;;
22030;SDS011;11179;52.106;21.024;2023-04-24T10:30:45;13.30;;;7.00;;
22030;SDS011;11179;52.106;21.024;2023-04-24T10:33:10;12.30;;;7.00;;
22030;SDS011;11179;52.106;21.024;2023-04-24T10:35:39;13.13;;;7.50;;
22030;SDS011;11179;52.106;21.024;2023-04-24T10:38:13;13.10;;;7.03;;
22030;SDS011;11179;52.106;21.024;2023-04-24T10:40:41;13.27;;;6.70;;
22030;SDS011;11179;52.106;21.024;2023-04-24T10:43:07;18.17;;;7.70;;
22030;SDS011;11179;52.106;21.024;2023-04-24T10:45:36;19.90;;;7.80;;
22030;SDS011;11179;52.106;21.024;2023-04-24T10:48:05;15.90;;;8.27;;
22030;SDS011;11179;52.106;21.024;2023-04-24T10:50:45;13.90;;;8.03;;
22030;SDS011;11179;52.106;21.024;2023-04-24T10:53:19;11.80;;;6.17;;
22030;SDS011;11179;52.106;21.024;2023-04-24T10:55:48;12.70;;;6.10;;
22030;SDS011;11179;52.106;21.024;2023-04-24T10:58:22;16.73;;;5.80;;
22030;SDS011;11179;52.106;21.024;2023-04-24T11:00:58;11.10;;;6.27;;
22030;SDS011;11179;52.106;21.024;2023-04-24T11:03:28;14.67;;;7.03;;
22030;SDS011;11179;52.106;21.024;2023-04-24T11:05:57;12.30;;;6.33;;
22030;SDS011;11179;52.106;21.024;2023-04-24T11:08:26;15.47;;;6.50;;
22030;SDS011;11179;52.106;21.024;2023-04-24T11:10:56;11.23;;;6.20;;
22030;SDS011;11179;52.106;21.024;2023-04-24T11:13:23;13.80;;;6.63;;
22030;SDS011;11179;52.106;21.024;2023-04-24T11:18:39;9.90;;;5.80;;
22030;SDS011;11179;52.106;21.024;2023-04-24T11:21:12;19.27;;;6.03;;
22030;SDS011;11179;52.106;21.024;2023-04-24T11:23:38;10.43;;;6.20;;
22030;SDS011;11179;52.106;21.024;2023-04-24T11:26:17;11.83;;;6.57;;
22030;SDS011;11179;52.106;21.024;2023-04-24T11:28:46;14.93;;;6.60;;
22030;SDS011;11179;52.106;21.024;2023-04-24T11:34:09;12.50;;;6.83;;
22030;SDS011;11179;52.106;21.024;2023-04-24T11:36:35;19.03;;;7.47;;
22030;SDS011;11179;52.106;21.024;2023-04-24T11:39:01;14.20;;;7.40;;
22030;SDS011;11179;52.106;21.024;2023-04-24T11:41:27;10.10;;;6.63;;
22030;SDS011;11179;52.106;21.024;2023-04-24T11:43:53;13.33;;;7.30;;
22030;SDS011;11179;52.106;21.024;2023-04-24T11:46:20;14.60;;;7.00;;
22030;SDS011;11179;52.106;21.024;2023-04-24T11:48:46;10.07;;;5.97;;
22030;SDS011;11179;52.106;21.024;2023-04-24T11:51:12;13.63;;;6.93;;
22030;SDS011;11179;52.106;21.024;2023-04-24T11:53:38;10.80;;;6.30;;
22030;SDS011;11179;52.106;21.024;2023-04-24T11:56:03;10.97;;;5.80;;
22030;SDS011;11179;52.106;21.024;2023-04-24T11:58:34;14.07;;;7.20;;
22030;SDS011;11179;52.106;21.024;2023-04-24T12:01:00;28.77;;;6.97;;
22030;SDS011;11179;52.106;21.024;2023-04-24T12:03:26;16.03;;;6.60;;
22030;SDS011;11179;52.106;21.024;2023-04-24T12:05:51;11.53;;;6.47;;
22030;SDS011;11179;52.106;21.024;2023-04-24T12:08:27;11.70;;;5.70;;
22030;SDS011;11179;52.106;21.024;2023-04-24T12:10:53;16.77;;;6.17;;
22030;SDS011;11179;52.106;21.024;2023-04-24T12:13:18;14.53;;;6.97;;
22030;SDS011;11179;52.106;21.024;2023-04-24T12:15:44;8.60;;;5.63;;
22030;SDS011;11179;52.106;21.024;2023-04-24T12:18:11;14.17;;;5.80;;
22030;SDS011;11179;52.106;21.024;2023-04-24T12:20:37;16.60;;;6.90;;
22030;SDS011;11179;52.106;21.024;2023-04-24T12:23:03;15.87;;;6.80;;
22030;SDS011;11179;52.106;21.024;2023-04-24T12:25:29;15.17;;;7.40;;
22030;SDS011;11179;52.106;21.024;2023-04-24T12:30:27;27.53;;;6.53;;
22030;SDS011;11179;52.106;21.024;2023-04-24T12:32:54;14.30;;;5.60;;
22030;SDS011;11179;52.106;21.024;2023-04-24T12:35:23;55.07;;;7.57;;
22030;SDS011;11179;52.106;21.024;2023-04-24T12:37:50;18.77;;;5.00;;
22030;SDS011;11179;52.106;21.024;2023-04-24T12:40:16;20.23;;;5.20;;
22030;SDS011;11179;52.106;21.024;2023-04-24T12:42:46;17.40;;;5.30;;
22030;SDS011;11179;52.106;21.024;2023-04-24T12:45:13;22.47;;;5.10;;
22030;SDS011;11179;52.106;21.024;2023-04-24T12:47:40;14.97;;;4.13;;
22030;SDS011;11179;52.106;21.024;2023-04-24T12:50:10;22.43;;;5.50;;
22030;SDS011;11179;52.106;21.024;2023-04-24T12:52:36;15.37;;;4.50;;
22030;SDS011;11179;52.106;21.024;2023-04-24T12:55:03;12.33;;;4.70;;
22030;SDS011;11179;52.106;21.024;2023-04-24T12:57:30;21.43;;;5.57;;
22030;SDS011;11179;52.106;21.024;2023-04-24T12:59:56;15.43;;;4.73;;
22030;SDS011;11179;52.106;21.024;2023-04-24T13:02:25;12.37;;;4.70;;
22030;SDS011;11179;52.106;21.024;2023-04-24T13:04:52;10.27;;;4.20;;
22030;SDS011;11179;52.106;21.024;2023-04-24T13:07:17;12.30;;;4.30;;
22030;SDS011;11179;52.106;21.024;2023-04-24T13:09:43;8.27;;;4.17;;
22030;SDS011;11179;52.106;21.024;2023-04-24T13:12:09;10.10;;;4.10;;
22030;SDS011;11179;52.106;21.024;2023-04-24T13:14:35;8.80;;;4.50;;
22030;SDS011;11179;52.106;21.024;2023-04-24T13:17:02;10.17;;;4.73;;
22030;SDS011;11179;52.106;21.024;2023-04-24T13:19:28;11.17;;;4.23;;
22030;SDS011;11179;52.106;21.024;2023-04-24T13:21:54;7.57;;;4.00;;
22030;SDS011;11179;52.106;21.024;2023-04-24T13:24:21;7.97;;;4.17;;
22030;SDS011;11179;52.106;21.024;2023-04-24T13:26:51;8.43;;;4.43;;
22030;SDS011;11179;52.106;21.024;2023-04-24T13:29:21;8.60;;;4.30;;
22030;SDS011;11179;52.106;21.024;2023-04-24T13:31:47;7.60;;;4.10;;
22030;SDS011;11179;52.106;21.024;2023-04-24T13:34:13;9.60;;;4.40;;
22030;SDS011;11179;52.106;21.024;2023-04-24T13:36:38;10.13;;;4.53;;
22030;SDS011;11179;52.106;21.024;2023-04-24T13:39:04;8.63;;;4.90;;
22030;SDS011;11179;52.106;21.024;2023-04-24T13:41:30;16.80;;;4.77;;
22030;SDS011;11179;52.106;21.024;2023-04-24T13:43:55;7.57;;;3.90;;
22030;SDS011;11179;52.106;21.024;2023-04-24T13:46:21;10.07;;;3.90;;
22030;SDS011;11179;52.106;21.024;2023-04-24T13:48:46;9.57;;;4.37;;
22030;SDS011;11179;52.106;21.024;2023-04-24T13:51:12;9.60;;;4.33;;
22030;SDS011;11179;52.106;21.024;2023-04-24T13:53:38;10.30;;;5.07;;
22030;SDS011;11179;52.106;21.024;2023-04-24T13:56:04;16.93;;;5.43;;
22030;SDS011;11179;52.106;21.024;2023-04-24T13:58:30;10.30;;;5.47;;
22030;SDS011;11179;52.106;21.024;2023-04-24T14:00:56;12.17;;;5.43;;
22030;SDS011;11179;52.106;21.024;2023-04-24T14:03:21;9.33;;;4.20;;
22030;SDS011;11179;52.106;21.024;2023-04-24T14:05:46;8.90;;;5.10;;
22030;SDS011;11179;52.106;21.024;2023-04-24T14:08:12;12.80;;;4.70;;
22030;SDS011;11179;52.106;21.024;2023-04-24T14:10:37;8.20;;;5.00;;
22030;SDS011;11179;52.106;21.024;2023-04-24T14:13:02;9.33;;;4.70;;
22030;SDS011;11179;52.106;21.024;2023-04-24T14:15:28;9.60;;;4.20;;
22030;SDS011;11179;52.106;21.024;2023-04-24T14:17:53;8.00;;;5.10;;
22030;SDS011;11179;52.106;21.024;2023-04-24T14:20:19;10.63;;;4.20;;
22030;SDS011;11179;52.106;21.024;2023-04-24T14:22:44;7.97;;;4.50;;
22030;SDS011;11179;52.106;21.024;2023-04-24T14:25:09;9.83;;;5.07;;